Carrboro, North Carolina
Current Conditions -  °F | °C
As of 3:56 AM on Monday 20 Oct 2014 (Local Time) from KIGX Reporting Station
Clear Clear  
Wind Chill:   Ceiling: Unl
Heat Index:   Visibility: 10mi
Dew Point:   Wind: 0mph
Humidity: 93%   Direction: NA
Pressure: 30.12"   Gusts: NA
Location:  35.91°N, 79.08°W
Report Text: KIGX 200756Z AUTO 00000KT 10SM CLR 06/05 A3012 RMK AO2 SLP199 T00610050
Loading
Personal Weather Stations






























Interactive Weather Map
Tropical Storm Tracking
New forecast layout! Learn more

10-Day Weather Forecast

Advertisements
Track Severe Weather on mobile